createdAt,value
2023-06-23T00:01:46.645Z,14.82
2023-06-23T00:04:32.302Z,14.57
2023-06-23T00:07:17.515Z,10.68
2023-06-23T00:10:06.662Z,10.30
2023-06-23T00:12:51.694Z,8.85
2023-06-23T00:15:37.037Z,10.35
2023-06-23T00:18:22.369Z,10.70
2023-06-23T00:21:09.634Z,15.55
2023-06-23T00:23:56.095Z,10.63
2023-06-23T00:26:41.300Z,12.80
2023-06-23T00:29:26.620Z,12.45
2023-06-23T00:32:12.185Z,11.57
2023-06-23T00:34:57.534Z,11.50
2023-06-23T00:37:44.293Z,12.52
2023-06-23T00:40:29.503Z,12.75
2023-06-23T00:43:17.515Z,15.25
2023-06-23T00:46:12.210Z,13.48
2023-06-23T00:48:57.857Z,15.02
2023-06-23T00:51:43.419Z,12.73
2023-06-23T00:54:29.578Z,16.13
2023-06-23T00:57:15.231Z,15.20
2023-06-23T01:00:00.572Z,11.70
2023-06-23T01:02:54.348Z,14.57
2023-06-23T01:05:41.349Z,13.25
2023-06-23T01:08:29.610Z,12.63
2023-06-23T01:11:23.868Z,13.20
2023-06-23T01:14:15.296Z,13.00
2023-06-23T01:17:33.942Z,13.20
2023-06-23T01:20:27.104Z,14.23
2023-06-23T01:23:21.402Z,9.68
2023-06-23T01:26:22.735Z,15.63
2023-06-23T01:29:10.350Z,16.63
2023-06-23T01:32:07.512Z,12.93
2023-06-23T01:34:57.977Z,11.68
2023-06-23T01:37:48.413Z,13.20
2023-06-23T01:40:34.387Z,16.55
2023-06-23T01:43:30.730Z,10.50
2023-06-23T01:46:27.458Z,10.77
2023-06-23T01:49:18.388Z,11.50
2023-06-23T01:52:05.630Z,13.65
2023-06-23T01:54:52.090Z,13.20
2023-06-23T01:57:39.120Z,10.45
2023-06-23T02:00:25.341Z,10.63
2023-06-23T02:03:11.825Z,8.70
2023-06-23T02:05:59.237Z,8.13
2023-06-23T02:08:45.293Z,8.73
2023-06-23T02:11:33.200Z,4.63
2023-06-23T02:14:20.988Z,9.20
2023-06-23T02:17:11.105Z,6.80
2023-06-23T02:19:58.303Z,6.00
2023-06-23T02:22:49.159Z,6.57
2023-06-23T02:25:36.050Z,6.10
2023-06-23T02:28:22.647Z,6.93
2023-06-23T02:31:09.626Z,8.20
2023-06-23T02:33:55.784Z,5.65
2023-06-23T02:36:47.185Z,5.22
2023-06-23T02:39:42.951Z,5.60
2023-06-23T02:42:34.046Z,6.38
2023-06-23T02:45:30.319Z,7.97
2023-06-23T02:48:23.835Z,3.33
2023-06-23T02:51:14.928Z,6.72
2023-06-23T02:54:10.640Z,3.40
2023-06-23T02:56:59.689Z,3.65
2023-06-23T02:59:47.058Z,3.25
2023-06-23T03:02:32.922Z,4.75
2023-06-23T03:05:18.546Z,5.75
2023-06-23T03:08:04.057Z,11.48
2023-06-23T03:10:55.907Z,4.95
2023-06-23T03:13:41.522Z,5.97
2023-06-23T03:16:30.939Z,6.82
2023-06-23T03:19:23.535Z,3.33
2023-06-23T03:22:15.486Z,3.78
2023-06-23T03:25:03.917Z,5.18
2023-06-23T03:27:51.025Z,4.78
2023-06-23T03:30:42.271Z,4.72
2023-06-23T03:33:36.582Z,4.13
2023-06-23T03:36:24.109Z,4.28
2023-06-23T03:39:21.350Z,3.58
2023-06-23T03:42:07.595Z,4.50
2023-06-23T03:44:54.222Z,4.00
2023-06-23T03:47:41.898Z,3.25
2023-06-23T03:50:29.525Z,3.88
2023-06-23T03:53:16.239Z,6.85
2023-06-23T03:56:02.967Z,4.88
2023-06-23T03:58:51.591Z,5.40
2023-06-23T04:01:38.282Z,3.40
2023-06-23T04:04:25.273Z,3.15
2023-06-23T04:07:12.529Z,3.03
2023-06-23T04:10:02.631Z,5.18
2023-06-23T04:12:49.450Z,7.00
2023-06-23T04:15:39.144Z,2.83
2023-06-23T04:18:27.691Z,4.95
2023-06-23T04:21:16.820Z,4.15
2023-06-23T04:24:04.768Z,4.63
2023-06-23T04:26:56.075Z,5.50
2023-06-23T04:29:44.265Z,4.65
2023-06-23T04:32:29.820Z,5.00
2023-06-23T04:35:15.378Z,5.88
2023-06-23T04:38:04.255Z,7.07
2023-06-23T04:40:57.849Z,6.72
2023-06-23T04:43:47.005Z,5.30
2023-06-23T04:46:37.889Z,4.80
2023-06-23T04:49:28.301Z,4.53
2023-06-23T04:52:15.812Z,5.47
2023-06-23T04:55:03.525Z,4.45
2023-06-23T04:57:51.679Z,4.88
2023-06-23T05:00:38.630Z,5.85
2023-06-23T05:03:25.728Z,7.07
2023-06-23T05:06:12.403Z,4.90
2023-06-23T05:08:59.200Z,5.03
2023-06-23T05:11:45.460Z,5.25
2023-06-23T05:14:33.204Z,4.57
2023-06-23T05:17:21.605Z,4.22
2023-06-23T05:20:10.289Z,4.80
2023-06-23T05:22:58.485Z,5.57
2023-06-23T05:25:46.085Z,6.25
2023-06-23T05:28:36.040Z,5.28
2023-06-23T05:31:23.783Z,5.13
2023-06-23T05:34:11.222Z,5.07
2023-06-23T05:36:56.929Z,6.85
2023-06-23T05:39:44.259Z,4.88
2023-06-23T05:42:30.850Z,6.05
2023-06-23T05:45:16.451Z,5.85
2023-06-23T05:48:22.580Z,4.47
2023-06-23T05:51:12.143Z,6.20
2023-06-23T05:54:00.541Z,4.55
2023-06-23T05:56:51.400Z,7.40
2023-06-23T05:59:43.460Z,5.05
2023-06-23T06:02:32.239Z,4.63
2023-06-23T06:05:19.454Z,4.15
2023-06-23T06:08:06.717Z,6.47
2023-06-23T06:10:53.834Z,6.65
2023-06-23T06:13:45.865Z,5.75
2023-06-23T06:16:32.497Z,6.18
2023-06-23T06:19:23.144Z,6.10
2023-06-23T06:22:11.344Z,10.77
2023-06-23T06:24:58.136Z,6.95
2023-06-23T06:27:45.610Z,10.68
2023-06-23T06:30:33.877Z,7.72
2023-06-23T06:33:20.894Z,6.25
2023-06-23T06:36:08.878Z,10.27
2023-06-23T06:38:55.316Z,6.55
2023-06-23T06:41:41.419Z,7.97
2023-06-23T06:44:26.836Z,6.03
2023-06-23T06:47:12.964Z,9.07
2023-06-23T06:50:02.818Z,10.65
2023-06-23T06:52:50.872Z,6.72
2023-06-23T06:55:36.298Z,4.68
2023-06-23T06:58:22.186Z,6.90
2023-06-23T07:01:08.075Z,5.28
2023-06-23T07:03:54.612Z,4.30
2023-06-23T07:06:41.333Z,6.05
2023-06-23T07:09:26.723Z,6.05
2023-06-23T07:12:12.211Z,4.60
2023-06-23T07:14:57.716Z,4.28
2023-06-23T07:17:42.944Z,4.22
2023-06-23T07:20:28.459Z,6.38
2023-06-23T07:23:13.811Z,5.13
2023-06-23T07:25:59.362Z,4.47
2023-06-23T07:28:44.761Z,4.22
2023-06-23T07:31:31.812Z,5.15
2023-06-23T07:34:17.197Z,4.50
2023-06-23T07:37:02.550Z,6.43
2023-06-23T07:39:48.018Z,4.70
2023-06-23T07:42:33.756Z,5.90
2023-06-23T07:45:18.896Z,3.35
2023-06-23T07:48:04.646Z,5.53
2023-06-23T07:50:50.085Z,3.97
2023-06-23T07:53:35.442Z,3.72
2023-06-23T07:56:20.746Z,4.05
2023-06-23T07:59:06.017Z,3.80
2023-06-23T08:01:51.330Z,3.53
2023-06-23T08:04:36.641Z,3.88
2023-06-23T08:07:22.045Z,3.58
2023-06-23T08:10:07.666Z,3.70
2023-06-23T08:12:53.125Z,4.88
2023-06-23T08:15:38.678Z,5.43
2023-06-23T08:18:24.016Z,5.78
2023-06-23T08:21:11.302Z,4.13
2023-06-23T08:23:56.481Z,3.95
2023-06-23T08:26:41.814Z,6.28
2023-06-23T08:29:27.306Z,4.78
2023-06-23T08:32:13.367Z,4.15
2023-06-23T08:34:59.292Z,3.90
2023-06-23T08:37:44.900Z,6.85
2023-06-23T08:40:30.423Z,3.83
2023-06-23T08:43:17.053Z,4.05
2023-06-23T08:46:03.954Z,3.58
2023-06-23T08:48:51.604Z,4.05
2023-06-23T08:51:37.281Z,3.95
2023-06-23T08:54:22.928Z,5.70
2023-06-23T08:57:09.170Z,4.13
2023-06-23T08:59:54.654Z,6.47
2023-06-23T09:02:39.830Z,10.35
2023-06-23T09:05:25.148Z,4.47
2023-06-23T09:08:11.520Z,3.90
2023-06-23T09:10:57.040Z,4.63
2023-06-23T09:13:45.403Z,4.93
2023-06-23T09:16:31.916Z,3.70
2023-06-23T09:19:19.628Z,4.07
2023-06-23T09:22:09.861Z,4.18
2023-06-23T09:24:55.269Z,3.80
2023-06-23T09:27:43.721Z,5.65
2023-06-23T09:30:36.533Z,3.90
2023-06-23T09:33:23.234Z,3.38
2023-06-23T09:36:08.937Z,3.65
2023-06-23T09:38:53.964Z,3.75
2023-06-23T09:41:51.825Z,4.75
2023-06-23T09:44:40.138Z,4.50
2023-06-23T09:47:27.048Z,3.63
2023-06-23T09:50:19.142Z,4.22
2023-06-23T09:55:50.727Z,3.30
2023-06-23T09:58:41.120Z,4.60
2023-06-23T10:01:26.648Z,4.45
2023-06-23T10:04:11.750Z,2.80
2023-06-23T10:06:58.165Z,6.85
2023-06-23T10:10:01.710Z,2.63
2023-06-23T10:12:57.385Z,3.65
2023-06-23T10:15:43.098Z,3.75
2023-06-23T10:18:29.085Z,2.88
2023-06-23T10:21:14.516Z,3.70
2023-06-23T10:24:04.314Z,3.20
2023-06-23T10:26:51.983Z,3.83
2023-06-23T10:29:43.407Z,3.38
2023-06-23T10:32:34.530Z,3.33
2023-06-23T10:35:22.866Z,2.92
2023-06-23T10:38:10.048Z,6.47
2023-06-23T10:40:59.625Z,2.83
2023-06-23T10:43:48.482Z,3.05
2023-06-23T10:46:34.934Z,3.78
2023-06-23T10:49:23.492Z,2.70
2023-06-23T10:52:10.784Z,2.60
2023-06-23T10:54:55.838Z,3.30
2023-06-23T10:57:41.227Z,3.13
2023-06-23T11:00:32.300Z,2.50
2023-06-23T11:03:37.870Z,2.83
2023-06-23T11:06:35.454Z,2.78
2023-06-23T11:09:56.084Z,2.75
2023-06-23T11:12:46.963Z,2.33
2023-06-23T11:15:32.856Z,2.83
2023-06-23T11:18:22.983Z,3.40
2023-06-23T11:21:19.853Z,2.10
2023-06-23T11:24:20.975Z,2.20
2023-06-23T11:27:06.326Z,2.00
2023-06-23T11:30:17.946Z,4.13
2023-06-23T11:33:35.294Z,3.70
2023-06-23T11:36:21.388Z,4.03
2023-06-23T11:39:09.150Z,1.70
2023-06-23T11:41:57.042Z,2.42
2023-06-23T11:44:42.434Z,2.22
2023-06-23T11:47:32.209Z,1.52
2023-06-23T11:50:19.769Z,2.03
2023-06-23T11:53:05.353Z,1.60
2023-06-23T11:55:51.257Z,1.40
2023-06-23T11:58:37.754Z,1.13
2023-06-23T12:01:23.742Z,1.63
2023-06-23T12:04:09.165Z,1.00
2023-06-23T12:06:54.434Z,1.05
2023-06-23T12:09:43.029Z,5.22
2023-06-23T12:12:28.992Z,1.63
2023-06-23T12:15:15.990Z,1.10
2023-06-23T12:18:01.197Z,1.92
2023-06-23T12:20:46.554Z,3.00
2023-06-23T12:23:35.024Z,2.00
2023-06-23T12:26:20.388Z,1.25
2023-06-23T12:29:09.277Z,6.90
2023-06-23T12:31:57.151Z,0.88
2023-06-23T12:34:46.211Z,1.00
2023-06-23T12:37:47.061Z,1.30
2023-06-23T12:40:34.507Z,1.38
2023-06-23T12:43:21.798Z,2.78
2023-06-23T12:46:09.425Z,2.90
2023-06-23T12:48:55.885Z,0.73
2023-06-23T12:51:41.051Z,1.73
2023-06-23T12:54:27.599Z,1.98
2023-06-23T12:57:13.357Z,0.85
2023-06-23T12:59:58.511Z,1.42
2023-06-23T13:02:43.950Z,3.58
2023-06-23T13:05:30.156Z,0.90
2023-06-23T13:08:15.730Z,1.67
2023-06-23T13:11:01.287Z,1.05
2023-06-23T13:13:46.677Z,2.20
2023-06-23T13:16:33.621Z,1.35
2023-06-23T13:19:18.996Z,3.38
2023-06-23T13:22:05.900Z,1.75
2023-06-23T13:24:51.737Z,4.38
2023-06-23T13:27:37.522Z,2.20
2023-06-23T13:30:23.570Z,1.63
2023-06-23T13:33:09.251Z,1.95
2023-06-23T13:35:54.672Z,2.10
2023-06-23T13:38:40.551Z,3.92
2023-06-23T13:41:25.925Z,2.28
2023-06-23T13:44:11.455Z,2.00
2023-06-23T13:46:56.776Z,1.58
2023-06-23T13:49:42.242Z,3.08
2023-06-23T13:52:27.431Z,2.38
2023-06-23T13:55:14.048Z,2.05
2023-06-23T13:57:59.564Z,2.03
2023-06-23T14:00:45.702Z,2.97
2023-06-23T14:03:31.054Z,2.28
2023-06-23T14:06:16.674Z,3.05
2023-06-23T14:09:04.494Z,1.30
2023-06-23T14:11:49.686Z,1.88
2023-06-23T14:14:35.322Z,1.83
2023-06-23T14:17:20.940Z,3.95
2023-06-23T14:20:07.524Z,2.58
2023-06-23T14:22:52.800Z,1.95
2023-06-23T14:25:38.197Z,2.30
2023-06-23T14:28:25.615Z,1.85
2023-06-23T14:31:10.748Z,1.80
2023-06-23T14:33:56.040Z,2.13
2023-06-23T14:36:41.767Z,2.30
2023-06-23T14:39:27.155Z,2.05
2023-06-23T14:42:12.418Z,4.03
2023-06-23T14:44:58.187Z,2.13
2023-06-23T14:47:43.327Z,2.60
2023-06-23T14:50:30.038Z,1.92
2023-06-23T14:53:15.435Z,1.48
2023-06-23T14:56:00.793Z,2.75
2023-06-23T14:58:46.324Z,2.20
2023-06-23T15:01:31.591Z,3.38
2023-06-23T15:04:17.247Z,5.70
2023-06-23T15:07:02.971Z,4.93
2023-06-23T15:09:48.310Z,2.13
2023-06-23T15:12:33.981Z,2.55
2023-06-23T15:15:19.314Z,3.00
2023-06-23T15:18:04.948Z,2.33
2023-06-23T15:20:50.373Z,4.15
2023-06-23T15:23:37.635Z,3.10
2023-06-23T15:26:22.729Z,2.75
2023-06-23T15:29:08.449Z,2.30
2023-06-23T15:31:57.325Z,2.65
2023-06-23T15:34:43.961Z,2.28
2023-06-23T15:37:29.157Z,4.32
2023-06-23T15:40:16.214Z,2.85
2023-06-23T15:43:02.252Z,5.38
2023-06-23T15:45:47.775Z,2.88
2023-06-23T15:48:34.652Z,3.60
2023-06-23T15:51:20.238Z,3.13
2023-06-23T15:54:05.606Z,3.08
2023-06-23T15:56:51.109Z,1.63
2023-06-23T15:59:36.591Z,2.20
2023-06-23T16:02:25.565Z,2.63
2023-06-23T16:05:10.868Z,3.75
2023-06-23T16:07:56.659Z,2.60
2023-06-23T16:10:41.928Z,3.88
2023-06-23T16:13:28.262Z,3.92
2023-06-23T16:16:14.151Z,2.85
2023-06-23T16:18:59.792Z,4.00
2023-06-23T16:21:48.551Z,3.38
2023-06-23T16:24:34.325Z,2.90
2023-06-23T16:27:19.756Z,3.28
2023-06-23T16:30:06.176Z,2.10
2023-06-23T16:32:51.839Z,2.58
2023-06-23T16:35:37.314Z,3.28
2023-06-23T16:38:22.517Z,3.03
2023-06-23T16:41:08.163Z,2.47
2023-06-23T16:43:53.506Z,2.55
2023-06-23T16:46:39.648Z,3.15
2023-06-23T16:49:25.256Z,3.22
2023-06-23T16:52:10.735Z,2.63
2023-06-23T16:54:56.539Z,3.00
2023-06-23T16:57:43.464Z,9.98
2023-06-23T17:00:31.519Z,2.88
2023-06-23T17:03:16.630Z,4.07
2023-06-23T17:06:01.861Z,3.45
2023-06-23T17:08:47.190Z,4.03
2023-06-23T17:11:32.619Z,3.33
2023-06-23T17:14:17.893Z,2.13
2023-06-23T17:17:03.453Z,3.00
2023-06-23T17:19:48.844Z,2.05
2023-06-23T17:22:34.350Z,3.42
2023-06-23T17:25:19.971Z,2.42
2023-06-23T17:28:05.323Z,2.67
2023-06-23T17:30:51.002Z,3.13
2023-06-23T17:33:36.413Z,3.03
2023-06-23T17:36:21.953Z,5.18
2023-06-23T17:39:07.334Z,5.28
2023-06-23T17:41:52.659Z,3.17
2023-06-23T17:44:38.777Z,3.72
2023-06-23T17:47:24.310Z,3.20
2023-06-23T17:50:10.984Z,3.15
2023-06-23T17:52:56.150Z,3.17
2023-06-23T17:55:41.604Z,4.85
2023-06-23T17:58:27.001Z,4.05
2023-06-23T18:01:12.499Z,3.53
2023-06-23T18:03:58.136Z,3.60
2023-06-23T18:06:43.480Z,4.30
2023-06-23T18:09:28.665Z,5.38
2023-06-23T18:12:14.145Z,3.10
2023-06-23T18:14:59.678Z,5.60
2023-06-23T18:17:45.342Z,3.53
2023-06-23T18:20:31.221Z,4.65
2023-06-23T18:23:16.602Z,4.60
2023-06-23T18:26:02.101Z,5.00
2023-06-23T18:28:48.726Z,3.30
2023-06-23T18:31:35.657Z,3.42
2023-06-23T18:34:21.387Z,6.55
2023-06-23T18:37:06.650Z,4.00
2023-06-23T18:39:52.131Z,4.13
2023-06-23T18:42:39.046Z,4.80
2023-06-23T18:45:26.800Z,4.72
2023-06-23T18:48:12.388Z,4.25
2023-06-23T18:50:57.818Z,4.63
2023-06-23T18:53:43.228Z,3.65
2023-06-23T18:56:28.849Z,4.30
2023-06-23T18:59:14.293Z,10.63
2023-06-23T19:01:59.791Z,5.35
2023-06-23T19:04:45.282Z,6.03
2023-06-23T19:07:30.757Z,4.10
2023-06-23T19:10:16.436Z,4.47
2023-06-23T19:13:03.008Z,8.70
2023-06-23T19:15:48.339Z,5.80
2023-06-23T19:18:33.567Z,5.30
2023-06-23T19:21:19.411Z,7.70
2023-06-23T19:24:05.617Z,5.05
2023-06-23T19:26:52.097Z,4.30
2023-06-23T19:29:37.582Z,6.18
2023-06-23T19:32:23.026Z,4.72
2023-06-23T19:35:08.600Z,4.72
2023-06-23T19:37:54.162Z,4.85
2023-06-23T19:40:39.809Z,5.00
2023-06-23T19:43:25.658Z,5.78
2023-06-23T19:46:11.475Z,4.75
2023-06-23T19:48:57.661Z,4.72
2023-06-23T19:51:43.152Z,5.85
2023-06-23T19:54:28.464Z,4.85
2023-06-23T19:57:13.874Z,4.47
2023-06-23T19:59:59.212Z,5.32
2023-06-23T20:02:45.851Z,5.28
2023-06-23T20:05:31.445Z,4.18
2023-06-23T20:08:16.617Z,6.30
2023-06-23T20:11:02.061Z,6.90
2023-06-23T20:13:47.613Z,5.80
2023-06-23T20:16:33.412Z,6.15
2023-06-23T20:19:19.625Z,4.78
2023-06-23T20:22:07.021Z,5.03
2023-06-23T20:24:52.708Z,4.38
2023-06-23T20:27:39.157Z,8.82
2023-06-23T20:30:24.562Z,5.30
2023-06-23T20:33:10.089Z,3.80
2023-06-23T20:35:55.348Z,4.90
2023-06-23T20:38:40.730Z,5.20
2023-06-23T20:41:26.134Z,4.20
2023-06-23T20:44:11.490Z,4.85
2023-06-23T20:46:57.058Z,5.68
2023-06-23T20:49:43.057Z,5.18
2023-06-23T20:52:28.488Z,4.47
2023-06-23T20:55:13.663Z,4.38
2023-06-23T20:57:59.216Z,4.90
2023-06-23T21:00:44.758Z,5.57
2023-06-23T21:03:30.058Z,5.63
2023-06-23T21:06:15.315Z,7.35
2023-06-23T21:09:00.704Z,4.30
2023-06-23T21:11:45.940Z,5.00
2023-06-23T21:14:31.604Z,4.35
2023-06-23T21:17:16.822Z,8.43
2023-06-23T21:20:02.272Z,5.18
2023-06-23T21:22:47.644Z,7.07
2023-06-23T21:25:32.980Z,4.78
2023-06-23T21:28:18.553Z,4.60
2023-06-23T21:31:03.970Z,5.80
2023-06-23T21:33:49.410Z,4.57
2023-06-23T21:36:34.705Z,6.97
2023-06-23T21:39:20.217Z,4.20
2023-06-23T21:42:05.919Z,7.65
2023-06-23T21:44:51.482Z,7.25
2023-06-23T21:47:37.110Z,6.07
2023-06-23T21:50:22.716Z,5.78
2023-06-23T21:53:08.173Z,4.43
2023-06-23T21:55:53.568Z,4.47
2023-06-23T21:58:42.749Z,8.10
2023-06-23T22:01:29.942Z,5.95
2023-06-23T22:04:15.448Z,6.05
2023-06-23T22:07:01.095Z,6.13
2023-06-23T22:09:46.319Z,5.20
2023-06-23T22:12:31.630Z,4.00
2023-06-23T22:15:17.098Z,4.63
2023-06-23T22:18:02.661Z,7.65
2023-06-23T22:20:48.101Z,4.07
2023-06-23T22:23:33.560Z,8.48
2023-06-23T22:26:18.826Z,6.03
2023-06-23T22:29:04.294Z,5.93
2023-06-23T22:31:49.594Z,5.65
2023-06-23T22:34:35.046Z,6.35
2023-06-23T22:37:20.451Z,5.75
2023-06-23T22:40:06.406Z,7.38
2023-06-23T22:42:51.868Z,8.32
2023-06-23T22:45:37.144Z,8.73
2023-06-23T22:48:22.483Z,7.05
2023-06-23T22:51:07.862Z,7.03
2023-06-23T22:53:53.222Z,6.60
2023-06-23T22:56:38.621Z,10.20
2023-06-23T22:59:23.862Z,10.15
2023-06-23T23:02:09.832Z,8.50
2023-06-23T23:04:54.953Z,5.03
2023-06-23T23:07:40.372Z,5.78
2023-06-23T23:10:25.719Z,7.32
2023-06-23T23:13:10.995Z,7.28
2023-06-23T23:15:56.406Z,11.90
2023-06-23T23:18:42.347Z,7.45
2023-06-23T23:21:27.728Z,7.75
2023-06-23T23:24:20.397Z,7.18
2023-06-23T23:27:06.102Z,8.23
2023-06-23T23:29:54.825Z,6.60
2023-06-23T23:32:42.803Z,7.13
2023-06-23T23:35:28.343Z,5.95
2023-06-23T23:38:13.752Z,7.70
2023-06-23T23:40:59.269Z,10.43
2023-06-23T23:43:44.404Z,6.82
2023-06-23T23:46:29.736Z,8.50
2023-06-23T23:49:15.217Z,7.05
2023-06-23T23:52:00.793Z,7.97
2023-06-23T23:54:45.979Z,11.10
2023-06-23T23:57:31.782Z,8.80
